createdAt,value
2019-05-03T00:00:02.941Z,11.78
2019-05-03T00:00:07.938Z,9.36
2019-05-03T00:00:12.940Z,10.33
2019-05-03T00:00:17.940Z,9.70
2019-05-03T00:00:22.942Z,14.88
2019-05-03T00:00:27.941Z,17.55
2019-05-03T00:00:32.944Z,15.01
2019-05-03T00:00:37.948Z,14.66
2019-05-03T00:00:42.946Z,14.78
2019-05-03T00:00:47.948Z,12.10
2019-05-03T00:00:52.948Z,10.40
2019-05-03T00:00:57.948Z,13.00
2019-05-03T00:01:02.953Z,11.52
2019-05-03T00:01:07.952Z,10.32
2019-05-03T00:01:12.953Z,9.98
2019-05-03T00:01:17.955Z,9.41
2019-05-03T00:01:22.954Z,7.92
2019-05-03T00:01:27.954Z,8.47
2019-05-03T00:01:32.956Z,7.91
2019-05-03T00:01:37.955Z,8.15
2019-05-03T00:01:42.956Z,9.93
2019-05-03T00:01:47.959Z,12.27
2019-05-03T00:01:52.959Z,12.98
2019-05-03T00:01:57.959Z,13.27
2019-05-03T00:02:02.963Z,14.03
2019-05-03T00:02:07.962Z,14.28
2019-05-03T00:02:12.961Z,12.60
2019-05-03T00:02:17.963Z,12.43
2019-05-03T00:02:22.964Z,14.58
2019-05-03T00:02:28.000Z,14.46
2019-05-03T00:02:33.000Z,14.12
2019-05-03T00:02:38.000Z,14.89
2019-05-03T00:02:43.002Z,13.38
2019-05-03T00:02:48.005Z,10.35
2019-05-03T00:02:53.011Z,9.64
2019-05-03T00:02:58.008Z,11.46
2019-05-03T00:03:03.009Z,11.01
2019-05-03T00:03:08.007Z,10.87
2019-05-03T00:03:13.008Z,13.88
2019-05-03T00:03:18.009Z,12.93
2019-05-03T00:03:23.008Z,13.92
2019-05-03T00:03:28.010Z,12.12
2019-05-03T00:03:33.017Z,15.11
2019-05-03T00:03:38.012Z,15.76
2019-05-03T00:03:43.012Z,14.85
2019-05-03T00:03:48.014Z,13.51
2019-05-03T00:03:53.017Z,15.23
2019-05-03T00:03:58.017Z,14.84
2019-05-03T00:04:03.016Z,15.24
2019-05-03T00:04:08.018Z,14.68
2019-05-03T00:04:13.018Z,14.12
2019-05-03T00:04:18.022Z,14.68
2019-05-03T00:04:23.021Z,13.19
2019-05-03T00:04:28.022Z,11.58
2019-05-03T00:04:33.025Z,11.06
2019-05-03T00:04:38.022Z,10.22
2019-05-03T00:04:43.027Z,10.61
2019-05-03T00:04:48.025Z,11.31
2019-05-03T00:04:53.026Z,10.39
2019-05-03T00:04:58.027Z,10.67
2019-05-03T00:05:03.029Z,10.30
2019-05-03T00:05:08.032Z,8.93
2019-05-03T00:05:13.031Z,11.13
2019-05-03T00:05:18.031Z,10.91
2019-05-03T00:05:23.033Z,10.84
2019-05-03T00:05:28.034Z,10.81
2019-05-03T00:05:33.035Z,12.56
2019-05-03T00:05:38.034Z,13.80
2019-05-03T00:05:43.038Z,13.37
2019-05-03T00:05:48.038Z,10.92
2019-05-03T00:05:53.039Z,8.42
2019-05-03T00:05:58.039Z,10.34
2019-05-03T00:06:03.041Z,13.36
2019-05-03T00:06:08.040Z,12.65
2019-05-03T00:06:13.041Z,13.11
2019-05-03T00:06:18.043Z,14.03
2019-05-03T00:06:23.046Z,12.82
2019-05-03T00:06:28.046Z,11.00
2019-05-03T00:06:33.046Z,12.16
2019-05-03T00:06:38.047Z,11.54
2019-05-03T00:06:43.051Z,9.29
2019-05-03T00:06:48.184Z,10.01
2019-05-03T00:06:53.052Z,12.96
2019-05-03T00:06:58.050Z,11.80
2019-05-03T00:07:03.051Z,9.00
2019-05-03T00:07:08.054Z,10.64
2019-05-03T00:07:13.053Z,12.76
2019-05-03T00:07:18.053Z,13.81
2019-05-03T00:07:23.054Z,13.63
2019-05-03T00:07:28.063Z,15.24
2019-05-03T00:07:33.056Z,15.69
2019-05-03T00:07:38.060Z,14.82
2019-05-03T00:07:43.058Z,14.08
2019-05-03T00:07:48.060Z,14.29
2019-05-03T00:07:53.063Z,11.95
2019-05-03T00:07:58.063Z,12.30
2019-05-03T00:08:03.062Z,11.29
2019-05-03T00:08:08.065Z,11.54
2019-05-03T00:08:13.248Z,11.76
2019-05-03T00:08:18.065Z,14.94
2019-05-03T00:08:23.067Z,15.30
2019-05-03T00:08:28.069Z,15.36
2019-05-03T00:08:33.072Z,15.54
2019-05-03T00:08:38.072Z,15.53
2019-05-03T00:08:43.073Z,16.90
2019-05-03T00:08:48.073Z,16.34
2019-05-03T00:08:53.074Z,12.98
2019-05-03T00:08:58.076Z,12.24
2019-05-03T00:09:03.075Z,15.08
2019-05-03T00:09:08.078Z,14.16
2019-05-03T00:09:13.076Z,14.60
2019-05-03T00:09:18.078Z,15.19
2019-05-03T00:09:23.079Z,13.25
2019-05-03T00:09:28.080Z,14.48
2019-05-03T00:09:33.081Z,11.95
2019-05-03T00:09:38.083Z,10.35
2019-05-03T00:09:43.083Z,10.65
2019-05-03T00:09:48.086Z,10.29
2019-05-03T00:09:53.094Z,10.06
2019-05-03T00:09:58.086Z,13.68
2019-05-03T00:10:03.087Z,13.74
2019-05-03T00:10:08.087Z,13.06
2019-05-03T00:10:13.090Z,15.66
2019-05-03T00:10:18.090Z,11.97
2019-05-03T00:10:23.090Z,11.90
2019-05-03T00:10:28.606Z,12.54
2019-05-03T00:10:33.092Z,12.67
2019-05-03T00:10:38.094Z,13.37
2019-05-03T00:10:43.094Z,13.69
2019-05-03T00:10:48.096Z,15.29
2019-05-03T00:10:53.098Z,12.57
2019-05-03T00:10:58.097Z,14.22
2019-05-03T00:11:03.099Z,14.34
2019-05-03T00:11:08.267Z,10.96
2019-05-03T00:11:13.101Z,10.85
2019-05-03T00:11:18.101Z,13.24
2019-05-03T00:11:23.102Z,10.30
2019-05-03T00:11:28.104Z,8.22
2019-05-03T00:11:33.104Z,9.66
2019-05-03T00:11:38.104Z,9.02
2019-05-03T00:11:43.108Z,9.85
2019-05-03T00:11:48.108Z,8.36
2019-05-03T00:11:53.109Z,7.58
2019-05-03T00:11:58.112Z,8.51
2019-05-03T00:12:03.112Z,7.63
2019-05-03T00:12:08.112Z,8.64
2019-05-03T00:12:13.653Z,9.37
2019-05-03T00:12:18.112Z,7.34
2019-05-03T00:12:23.114Z,8.54
2019-05-03T00:12:28.114Z,10.78
2019-05-03T00:12:33.167Z,11.46
2019-05-03T00:12:38.168Z,11.02
2019-05-03T00:12:43.170Z,8.75
2019-05-03T00:12:48.174Z,9.83
2019-05-03T00:12:53.181Z,10.48
2019-05-03T00:12:58.172Z,8.57
2019-05-03T00:13:03.173Z,7.65
2019-05-03T00:13:08.174Z,7.35
2019-05-03T00:13:13.176Z,7.25
2019-05-03T00:13:18.176Z,7.79
2019-05-03T00:13:23.179Z,7.39
2019-05-03T00:13:28.178Z,7.26
2019-05-03T00:13:33.179Z,9.70
2019-05-03T00:13:38.182Z,11.10
2019-05-03T00:13:43.184Z,9.60
2019-05-03T00:13:48.183Z,10.00
2019-05-03T00:13:53.183Z,12.24
2019-05-03T00:13:58.184Z,10.44
2019-05-03T00:14:03.186Z,9.39
2019-05-03T00:14:08.188Z,7.92
2019-05-03T00:14:13.189Z,6.71
2019-05-03T00:14:18.189Z,7.04
2019-05-03T00:14:23.192Z,12.33
2019-05-03T00:14:28.190Z,11.59
2019-05-03T00:14:33.193Z,10.69
2019-05-03T00:14:38.193Z,8.64
2019-05-03T00:14:43.193Z,9.43
2019-05-03T00:14:48.193Z,8.59
2019-05-03T00:14:53.195Z,8.38
2019-05-03T00:14:58.197Z,8.71
2019-05-03T00:15:03.199Z,7.12
2019-05-03T00:15:08.199Z,6.51
2019-05-03T00:15:13.199Z,9.82
2019-05-03T00:15:18.200Z,11.14
2019-05-03T00:15:23.201Z,7.77
2019-05-03T00:15:28.560Z,6.56
2019-05-03T00:15:33.204Z,7.65
2019-05-03T00:15:38.203Z,9.47
2019-05-03T00:15:43.205Z,10.37
2019-05-03T00:15:48.767Z,8.24
2019-05-03T00:15:53.220Z,8.72
2019-05-03T00:15:58.209Z,8.16
2019-05-03T00:16:03.210Z,8.81
2019-05-03T00:16:08.210Z,10.15
2019-05-03T00:16:13.213Z,8.17
2019-05-03T00:16:18.212Z,8.09
2019-05-03T00:16:23.214Z,9.62
2019-05-03T00:16:28.213Z,9.03
2019-05-03T00:16:33.215Z,9.10
2019-05-03T00:16:38.217Z,8.95
2019-05-03T00:16:43.217Z,7.77
2019-05-03T00:16:48.524Z,9.81
2019-05-03T00:16:53.221Z,9.75
2019-05-03T00:16:58.221Z,8.04
2019-05-03T00:17:03.221Z,8.05
2019-05-03T00:17:08.223Z,7.48
2019-05-03T00:17:13.225Z,8.01
2019-05-03T00:17:18.223Z,9.89
2019-05-03T00:17:23.226Z,8.08
2019-05-03T00:17:28.225Z,8.06
2019-05-03T00:17:33.225Z,9.15
2019-05-03T00:17:39.652Z,7.84
2019-05-03T00:17:43.228Z,7.41
2019-05-03T00:17:48.230Z,8.21
2019-05-03T00:17:53.232Z,8.25
2019-05-03T00:17:58.229Z,9.97
2019-05-03T00:18:03.232Z,11.25
2019-05-03T00:18:08.232Z,13.37
2019-05-03T00:18:13.233Z,11.22
2019-05-03T00:18:18.236Z,12.23
2019-05-03T00:18:23.236Z,11.27
2019-05-03T00:18:28.236Z,8.53
2019-05-03T00:18:33.238Z,8.67
2019-05-03T00:18:38.240Z,6.96
2019-05-03T00:18:43.240Z,4.70
2019-05-03T00:18:48.240Z,4.68
2019-05-03T00:18:53.242Z,6.37
2019-05-03T00:18:58.242Z,8.65
2019-05-03T00:19:03.243Z,11.69
2019-05-03T00:19:08.248Z,14.55
2019-05-03T00:19:13.246Z,12.69
2019-05-03T00:19:18.248Z,13.55
2019-05-03T00:19:23.248Z,13.40
2019-05-03T00:19:28.247Z,12.83
2019-05-03T00:19:33.249Z,13.89
2019-05-03T00:19:38.250Z,11.39
2019-05-03T00:19:43.251Z,12.45
2019-05-03T00:19:48.252Z,12.36
2019-05-03T00:19:53.254Z,10.96
2019-05-03T00:19:58.253Z,10.13
2019-05-03T00:20:03.257Z,8.16
2019-05-03T00:20:08.256Z,8.23
2019-05-03T00:20:13.259Z,9.96
2019-05-03T00:20:18.257Z,8.10
2019-05-03T00:20:23.260Z,9.25
2019-05-03T00:20:28.259Z,9.26
2019-05-03T00:20:33.262Z,10.26
2019-05-03T00:20:38.264Z,11.29
2019-05-03T00:20:43.264Z,8.54
2019-05-03T00:20:48.265Z,6.60
2019-05-03T00:20:53.268Z,8.24
2019-05-03T00:20:58.268Z,8.84
2019-05-03T00:21:03.305Z,10.16
2019-05-03T00:21:08.508Z,8.46
2019-05-03T00:21:13.270Z,8.91
2019-05-03T00:21:18.271Z,8.42
2019-05-03T00:21:23.272Z,9.82
2019-05-03T00:21:28.272Z,8.35
2019-05-03T00:21:33.274Z,10.83
2019-05-03T00:21:38.275Z,10.81
2019-05-03T00:21:43.275Z,11.47
2019-05-03T00:21:48.701Z,9.47
2019-05-03T00:21:53.276Z,8.66
2019-05-03T00:21:58.280Z,10.47
2019-05-03T00:22:03.279Z,8.27
2019-05-03T00:22:08.281Z,6.46
2019-05-03T00:22:13.284Z,6.66
2019-05-03T00:22:18.282Z,7.02
2019-05-03T00:22:23.284Z,5.96
2019-05-03T00:22:28.283Z,6.07
2019-05-03T00:22:33.286Z,4.71
2019-05-03T00:22:38.285Z,7.10
2019-05-03T00:22:43.289Z,7.89
2019-05-03T00:22:48.288Z,9.02
2019-05-03T00:22:53.289Z,7.80
2019-05-03T00:22:58.290Z,8.69
2019-05-03T00:23:03.293Z,8.35
2019-05-03T00:23:08.292Z,7.58
2019-05-03T00:23:13.293Z,8.99
2019-05-03T00:23:18.292Z,8.08
2019-05-03T00:23:23.296Z,7.49
2019-05-03T00:23:28.295Z,6.57
2019-05-03T00:23:33.295Z,5.24
2019-05-03T00:23:38.298Z,5.89
2019-05-03T00:23:43.299Z,9.19
2019-05-03T00:23:48.298Z,8.15
2019-05-03T00:23:53.299Z,7.51
2019-05-03T00:23:58.302Z,5.25
2019-05-03T00:24:03.301Z,5.27
2019-05-03T00:24:08.302Z,5.33
2019-05-03T00:24:13.306Z,6.59
2019-05-03T00:24:18.303Z,8.40
2019-05-03T00:24:23.307Z,7.59
2019-05-03T00:24:28.663Z,6.29
2019-05-03T00:24:33.310Z,6.50
2019-05-03T00:24:38.311Z,9.39
2019-05-03T00:24:43.312Z,10.34
2019-05-03T00:24:48.313Z,9.52
2019-05-03T00:24:53.313Z,8.98
2019-05-03T00:24:58.548Z,10.87
2019-05-03T00:25:03.314Z,8.40
2019-05-03T00:25:08.316Z,9.72
2019-05-03T00:25:13.317Z,10.45
2019-05-03T00:25:18.317Z,9.30
2019-05-03T00:25:23.319Z,11.35
2019-05-03T00:25:28.320Z,9.68
2019-05-03T00:25:33.320Z,7.44
2019-05-03T00:25:38.322Z,8.00
2019-05-03T00:25:43.323Z,10.71
2019-05-03T00:25:48.322Z,9.07
2019-05-03T00:25:53.324Z,9.51
2019-05-03T00:25:58.329Z,10.43
2019-05-03T00:26:03.544Z,9.38
2019-05-03T00:26:08.327Z,7.92
2019-05-03T00:26:13.629Z,6.35
2019-05-03T00:26:18.328Z,8.22
2019-05-03T00:26:23.330Z,8.20
2019-05-03T00:26:28.335Z,6.81
2019-05-03T00:26:33.331Z,7.07
2019-05-03T00:26:38.333Z,7.16
2019-05-03T00:26:43.333Z,7.19
2019-05-03T00:26:48.334Z,7.20
2019-05-03T00:26:53.337Z,5.90
2019-05-03T00:26:58.337Z,7.49
2019-05-03T00:27:03.338Z,8.42
2019-05-03T00:27:08.338Z,7.60
2019-05-03T00:27:13.340Z,6.87
2019-05-03T00:27:18.340Z,7.09
2019-05-03T00:27:23.341Z,7.16
2019-05-03T00:27:28.704Z,7.19
2019-05-03T00:27:33.342Z,7.20
2019-05-03T00:27:38.344Z,7.20
2019-05-03T00:27:43.346Z,6.48
2019-05-03T00:27:48.347Z,4.54
2019-05-03T00:27:53.347Z,6.03
2019-05-03T00:27:58.349Z,7.19
2019-05-03T00:28:03.350Z,7.20
2019-05-03T00:28:08.350Z,7.20
2019-05-03T00:28:13.350Z,7.20
2019-05-03T00:28:18.351Z,7.20
2019-05-03T00:28:23.354Z,8.50
2019-05-03T00:28:28.354Z,7.62
2019-05-03T00:28:33.354Z,8.06
2019-05-03T00:28:38.356Z,10.27
2019-05-03T00:28:43.356Z,10.98
2019-05-03T00:28:48.357Z,11.98
2019-05-03T00:28:53.360Z,11.19
2019-05-03T00:28:58.360Z,10.93
2019-05-03T00:29:03.362Z,8.72
2019-05-03T00:29:08.363Z,8.45
2019-05-03T00:29:13.361Z,7.61
2019-05-03T00:29:18.363Z,6.15
2019-05-03T00:29:23.365Z,6.19
2019-05-03T00:29:28.364Z,7.45
2019-05-03T00:29:33.366Z,7.28
2019-05-03T00:29:38.444Z,6.65
2019-05-03T00:29:43.370Z,7.02
2019-05-03T00:29:48.368Z,9.27
2019-05-03T00:29:53.371Z,10.30
2019-05-03T00:29:58.371Z,8.88
2019-05-03T00:30:03.375Z,7.29
2019-05-03T00:30:08.376Z,7.23
2019-05-03T00:30:13.375Z,5.08
2019-05-03T00:30:18.378Z,6.21
2019-05-03T00:30:23.377Z,6.88
2019-05-03T00:30:28.440Z,7.81
2019-05-03T00:30:33.378Z,11.12
2019-05-03T00:30:38.379Z,11.20
2019-05-03T00:30:43.384Z,10.56
2019-05-03T00:30:48.380Z,8.30
2019-05-03T00:30:53.382Z,6.99
2019-05-03T00:30:58.485Z,5.89
2019-05-03T00:31:03.384Z,5.07
2019-05-03T00:31:08.386Z,7.54
2019-05-03T00:31:13.389Z,7.31
2019-05-03T00:31:18.388Z,5.11
2019-05-03T00:31:23.421Z,6.52
2019-05-03T00:31:28.429Z,7.27
2019-05-03T00:31:33.427Z,7.22
2019-05-03T00:31:38.426Z,7.21
2019-05-03T00:31:43.427Z,7.20
2019-05-03T00:31:48.427Z,6.74
2019-05-03T00:31:53.429Z,7.63
2019-05-03T00:31:58.431Z,7.34
2019-05-03T00:32:03.431Z,7.25
2019-05-03T00:32:08.431Z,7.51
2019-05-03T00:32:13.433Z,9.06
2019-05-03T00:32:18.433Z,9.51
2019-05-03T00:32:23.436Z,10.38
2019-05-03T00:32:28.433Z,9.37
2019-05-03T00:32:33.436Z,6.61
2019-05-03T00:32:38.436Z,6.43
2019-05-03T00:32:43.437Z,8.41
2019-05-03T00:32:48.439Z,8.84
2019-05-03T00:32:53.439Z,8.03
2019-05-03T00:32:58.442Z,7.10
2019-05-03T00:33:03.442Z,7.17
2019-05-03T00:33:08.447Z,6.53
2019-05-03T00:33:13.444Z,6.98
2019-05-03T00:33:18.449Z,6.41
2019-05-03T00:33:23.448Z,5.70
2019-05-03T00:33:28.446Z,7.29
2019-05-03T00:33:33.447Z,7.23
2019-05-03T00:33:38.448Z,8.33
2019-05-03T00:33:43.452Z,9.33
2019-05-03T00:33:48.620Z,8.56
2019-05-03T00:33:53.451Z,9.77
2019-05-03T00:33:58.453Z,8.71
2019-05-03T00:34:03.454Z,5.99
2019-05-03T00:34:08.454Z,6.80
2019-05-03T00:34:13.457Z,7.07
2019-05-03T00:34:18.457Z,7.16
2019-05-03T00:34:23.456Z,5.43
2019-05-03T00:34:28.459Z,4.92
2019-05-03T00:34:33.458Z,5.70
2019-05-03T00:34:38.460Z,5.99
2019-05-03T00:34:43.459Z,5.62
2019-05-03T00:34:48.462Z,5.39
2019-05-03T00:34:53.463Z,4.19
2019-05-03T00:34:58.464Z,3.79
2019-05-03T00:35:03.467Z,3.66
2019-05-03T00:35:08.466Z,8.17
2019-05-03T00:35:13.585Z,9.57
2019-05-03T00:35:18.467Z,7.98
2019-05-03T00:35:23.467Z,5.33
2019-05-03T00:35:28.470Z,4.17
2019-05-03T00:35:33.470Z,7.50
2019-05-03T00:35:38.474Z,7.59
2019-05-03T00:35:43.473Z,5.20
2019-05-03T00:35:48.474Z,6.55
2019-05-03T00:35:53.475Z,6.27
2019-05-03T00:35:58.477Z,6.89
2019-05-03T00:36:03.479Z,9.52
2019-05-03T00:36:08.477Z,7.96
2019-05-03T00:36:13.479Z,5.03
2019-05-03T00:36:18.479Z,5.36
2019-05-03T00:36:23.482Z,6.60
2019-05-03T00:36:28.482Z,6.63
2019-05-03T00:36:33.482Z,6.55
2019-05-03T00:36:38.490Z,5.66
2019-05-03T00:36:43.486Z,7.52
2019-05-03T00:36:48.486Z,6.01
2019-05-03T00:36:53.486Z,5.57
2019-05-03T00:36:58.487Z,5.65
2019-05-03T00:37:03.490Z,6.69
2019-05-03T00:37:08.490Z,10.46
2019-05-03T00:37:13.492Z,12.28
2019-05-03T00:37:18.491Z,11.28
2019-05-03T00:37:23.493Z,10.96
2019-05-03T00:37:28.492Z,10.85
2019-05-03T00:37:33.494Z,8.69
2019-05-03T00:37:38.496Z,7.69
2019-05-03T00:37:43.497Z,5.95
2019-05-03T00:37:48.498Z,6.79
2019-05-03T00:37:53.499Z,8.19
2019-05-03T00:37:58.500Z,9.28
2019-05-03T00:38:03.500Z,7.46
2019-05-03T00:38:08.504Z,7.28
2019-05-03T00:38:13.501Z,9.35
2019-05-03T00:38:18.504Z,11.20
2019-05-03T00:38:23.503Z,9.17
2019-05-03T00:38:28.506Z,7.13
2019-05-03T00:38:33.506Z,7.53
2019-05-03T00:38:38.507Z,8.43
2019-05-03T00:38:43.506Z,9.36
2019-05-03T00:38:48.509Z,7.91
2019-05-03T00:38:53.508Z,8.01
2019-05-03T00:38:58.510Z,7.76
2019-05-03T00:39:03.512Z,9.14
2019-05-03T00:39:08.512Z,9.54
2019-05-03T00:39:13.522Z,7.97
2019-05-03T00:39:18.514Z,7.45
2019-05-03T00:39:23.515Z,8.69
2019-05-03T00:39:28.861Z,7.98
2019-05-03T00:39:33.686Z,7.46
2019-05-03T00:39:38.517Z,8.58
2019-05-03T00:39:43.519Z,9.35
2019-05-03T00:39:48.523Z,7.91
2019-05-03T00:39:53.520Z,8.73
2019-05-03T00:39:58.691Z,9.40
2019-05-03T00:40:03.523Z,7.92
2019-05-03T00:40:08.526Z,5.38
2019-05-03T00:40:13.525Z,4.18
2019-05-03T00:40:18.531Z,6.21
2019-05-03T00:40:23.527Z,6.88
2019-05-03T00:40:28.529Z,7.09
2019-05-03T00:40:33.528Z,5.93
2019-05-03T00:40:38.528Z,5.84
2019-05-03T00:40:43.530Z,6.03
2019-05-03T00:40:48.532Z,4.40
2019-05-03T00:40:53.532Z,6.28
2019-05-03T00:40:58.534Z,9.32
2019-05-03T00:41:03.534Z,9.30
2019-05-03T00:41:08.537Z,7.89
2019-05-03T00:41:13.537Z,9.55
2019-05-03T00:41:18.538Z,8.63
2019-05-03T00:41:23.541Z,10.72
2019-05-03T00:41:28.541Z,10.77
2019-05-03T00:41:33.541Z,9.03
2019-05-03T00:41:38.542Z,10.22
2019-05-03T00:41:43.543Z,10.61
2019-05-03T00:41:48.543Z,9.44
2019-05-03T00:41:53.546Z,7.93
2019-05-03T00:41:58.545Z,5.68
2019-05-03T00:42:03.546Z,7.05
2019-05-03T00:42:08.549Z,8.85
2019-05-03T00:42:13.548Z,7.74
2019-05-03T00:42:18.551Z,8.04
2019-05-03T00:42:23.551Z,7.48
2019-05-03T00:42:28.552Z,7.29
2019-05-03T00:42:33.551Z,7.23
2019-05-03T00:42:38.552Z,6.17
2019-05-03T00:42:43.555Z,6.86
2019-05-03T00:42:48.555Z,8.39
2019-05-03T00:42:53.557Z,9.29
2019-05-03T00:42:58.558Z,9.29
2019-05-03T00:43:03.559Z,10.31
2019-05-03T00:43:08.558Z,12.39
2019-05-03T00:43:13.559Z,13.02
2019-05-03T00:43:18.563Z,13.23
2019-05-03T00:43:23.564Z,11.60
2019-05-03T00:43:28.577Z,8.94
2019-05-03T00:43:33.565Z,7.19
2019-05-03T00:43:38.566Z,6.90
2019-05-03T00:43:43.567Z,9.52
2019-05-03T00:43:48.567Z,11.68
2019-05-03T00:43:53.569Z,12.21
2019-05-03T00:43:58.569Z,11.26
2019-05-03T00:44:03.569Z,14.76
2019-05-03T00:44:08.572Z,13.94
2019-05-03T00:44:13.572Z,12.95
2019-05-03T00:44:18.573Z,10.38
2019-05-03T00:44:23.574Z,13.72
2019-05-03T00:44:28.577Z,13.17
2019-05-03T00:44:33.581Z,10.56
2019-05-03T00:44:38.576Z,8.30
2019-05-03T00:44:43.578Z,9.98
2019-05-03T00:44:48.580Z,10.53
2019-05-03T00:44:54.871Z,11.08
2019-05-03T00:44:58.580Z,10.32
2019-05-03T00:45:03.580Z,9.92
2019-05-03T00:45:08.581Z,11.97
2019-05-03T00:45:13.584Z,13.61
2019-05-03T00:45:18.589Z,12.96
2019-05-03T00:45:23.589Z,9.38
2019-05-03T00:45:28.586Z,9.21
2019-05-03T00:45:33.586Z,11.98
2019-05-03T00:45:38.897Z,11.19
2019-05-03T00:45:43.588Z,9.52
2019-05-03T00:45:48.591Z,9.26
2019-05-03T00:45:53.589Z,10.29
2019-05-03T00:45:58.593Z,8.93
2019-05-03T00:46:03.595Z,10.19
2019-05-03T00:46:08.594Z,9.19
2019-05-03T00:46:13.595Z,12.75
2019-05-03T00:46:18.753Z,13.86
2019-05-03T00:46:23.597Z,12.63
2019-05-03T00:46:28.599Z,10.68
2019-05-03T00:46:33.598Z,12.06
2019-05-03T00:46:38.599Z,14.65
2019-05-03T00:46:43.600Z,12.72
2019-05-03T00:46:48.602Z,11.43
2019-05-03T00:46:53.603Z,10.37
2019-05-03T00:46:58.603Z,8.24
2019-05-03T00:47:03.607Z,8.00
2019-05-03T00:47:08.606Z,9.16
2019-05-03T00:47:13.608Z,7.84
2019-05-03T00:47:18.607Z,9.54
2019-05-03T00:47:23.610Z,7.97
2019-05-03T00:47:28.611Z,10.30
2019-05-03T00:47:33.610Z,11.30
2019-05-03T00:47:38.612Z,9.26
2019-05-03T00:47:43.613Z,9.72
2019-05-03T00:47:48.619Z,10.45
2019-05-03T00:47:53.613Z,12.07
2019-05-03T00:47:58.616Z,12.04
2019-05-03T00:48:03.618Z,12.24
2019-05-03T00:48:08.620Z,11.27
2019-05-03T00:48:13.622Z,10.96
2019-05-03T00:48:18.620Z,9.45
2019-05-03T00:48:23.621Z,7.94
2019-05-03T00:48:28.622Z,7.44
2019-05-03T00:48:33.623Z,9.87
2019-05-03T00:48:38.622Z,12.46
2019-05-03T00:48:43.625Z,13.76
2019-05-03T00:48:48.625Z,12.43
2019-05-03T00:48:53.625Z,10.51
2019-05-03T00:48:58.632Z,11.07
2019-05-03T00:49:03.628Z,11.61
2019-05-03T00:49:08.634Z,13.49
2019-05-03T00:49:13.657Z,11.97
2019-05-03T00:49:18.633Z,12.48
2019-05-03T00:49:23.631Z,13.77
2019-05-03T00:49:28.634Z,9.65
2019-05-03T00:49:33.633Z,10.02
2019-05-03T00:49:39.096Z,12.24
2019-05-03T00:49:43.635Z,12.31
2019-05-03T00:49:48.638Z,10.00
2019-05-03T00:49:53.639Z,9.52
2019-05-03T00:49:58.640Z,10.09
2019-05-03T00:50:03.639Z,9.44
2019-05-03T00:50:08.663Z,10.35
2019-05-03T00:50:13.643Z,10.65
2019-05-03T00:50:18.645Z,12.05
2019-05-03T00:50:23.645Z,11.21
2019-05-03T00:50:28.644Z,9.75
2019-05-03T00:50:33.646Z,12.58
2019-05-03T00:50:38.646Z,13.80
2019-05-03T00:50:43.646Z,13.48
2019-05-03T00:50:49.037Z,11.68
2019-05-03T00:50:53.649Z,10.63
2019-05-03T00:50:58.649Z,10.74
2019-05-03T00:51:03.653Z,10.49
2019-05-03T00:51:08.654Z,10.70
2019-05-03T00:51:13.652Z,10.77
2019-05-03T00:51:18.654Z,11.72
2019-05-03T00:51:23.654Z,12.80
2019-05-03T00:51:28.655Z,12.29
2019-05-03T00:51:33.657Z,11.29
2019-05-03T00:51:38.659Z,9.84
2019-05-03T00:51:43.659Z,12.24
2019-05-03T00:51:48.661Z,13.69
2019-05-03T00:51:53.662Z,13.17
2019-05-03T00:51:58.662Z,11.87
2019-05-03T00:52:03.664Z,11.09
2019-05-03T00:52:08.663Z,8.48
2019-05-03T00:52:13.665Z,9.74
2019-05-03T00:52:18.666Z,10.82
2019-05-03T00:52:23.667Z,8.68
2019-05-03T00:52:28.668Z,7.69
2019-05-03T00:52:33.670Z,6.23
2019-05-03T00:52:38.670Z,7.46
2019-05-03T00:52:43.672Z,8.30
2019-05-03T00:52:48.674Z,9.98
2019-05-03T00:52:53.672Z,8.87
2019-05-03T00:52:58.710Z,10.17
2019-05-03T00:53:03.712Z,11.31
2019-05-03T00:53:08.712Z,13.39
2019-05-03T00:53:13.712Z,13.70
2019-05-03T00:53:18.718Z,12.69
2019-05-03T00:53:23.716Z,12.44
2019-05-03T00:53:28.716Z,11.70
2019-05-03T00:53:33.792Z,9.34
2019-05-03T00:53:38.718Z,7.90
2019-05-03T00:53:43.722Z,7.43
2019-05-03T00:53:48.721Z,8.03
2019-05-03T00:53:53.723Z,7.47
2019-05-03T00:53:58.722Z,7.29
2019-05-03T00:54:03.726Z,8.99
2019-05-03T00:54:08.725Z,10.21
2019-05-03T00:54:13.769Z,10.61
2019-05-03T00:54:18.728Z,8.61
2019-05-03T00:54:23.727Z,8.24
2019-05-03T00:54:28.730Z,7.84
2019-05-03T00:54:33.730Z,7.41
2019-05-03T00:54:38.733Z,9.69
2019-05-03T00:54:43.732Z,9.77
2019-05-03T00:54:48.731Z,9.74
2019-05-03T00:54:53.733Z,8.03
2019-05-03T00:54:58.746Z,6.75
2019-05-03T00:55:04.313Z,6.59
2019-05-03T00:55:08.736Z,9.33
2019-05-03T00:55:13.738Z,9.02
2019-05-03T00:55:18.738Z,7.08
2019-05-03T00:55:23.741Z,6.79
2019-05-03T00:55:28.739Z,9.49
2019-05-03T00:55:33.742Z,10.37
2019-05-03T00:55:38.742Z,12.78
2019-05-03T00:55:43.908Z,12.11
2019-05-03T00:55:48.747Z,9.11
2019-05-03T00:55:53.744Z,7.82
2019-05-03T00:55:58.744Z,7.40
2019-05-03T00:56:03.745Z,6.09
2019-05-03T00:56:08.747Z,5.13
2019-05-03T00:56:13.748Z,8.28
2019-05-03T00:56:18.750Z,8.22
2019-05-03T00:56:23.750Z,8.83
2019-05-03T00:56:28.750Z,9.58
2019-05-03T00:56:33.751Z,8.81
2019-05-03T00:56:38.754Z,7.01
2019-05-03T00:56:43.753Z,6.56
2019-05-03T00:56:48.756Z,6.99
2019-05-03T00:56:53.757Z,7.13
2019-05-03T00:56:58.758Z,7.18
2019-05-03T00:57:03.759Z,9.61
2019-05-03T00:57:08.761Z,7.99
2019-05-03T00:57:13.763Z,8.76
2019-05-03T00:57:18.763Z,11.22
2019-05-03T00:57:23.762Z,10.88
2019-05-03T00:57:28.764Z,10.83
2019-05-03T00:57:33.764Z,11.64
2019-05-03T00:57:38.766Z,11.43
2019-05-03T00:57:43.767Z,13.43
2019-05-03T00:57:48.768Z,14.80
2019-05-03T00:57:53.768Z,15.66
2019-05-03T00:57:58.769Z,13.11
2019-05-03T00:58:03.770Z,14.70
2019-05-03T00:58:08.771Z,16.92
2019-05-03T00:58:13.773Z,17.35
2019-05-03T00:58:18.774Z,14.65
2019-05-03T00:58:23.775Z,14.19
2019-05-03T00:58:28.774Z,12.28
2019-05-03T00:58:33.776Z,13.62
2019-05-03T00:58:38.777Z,12.02
2019-05-03T00:58:43.779Z,12.60
2019-05-03T00:58:48.779Z,11.69
2019-05-03T00:58:53.780Z,11.75
2019-05-03T00:58:58.781Z,13.59
2019-05-03T00:59:03.781Z,14.13
2019-05-03T00:59:08.784Z,15.03
2019-05-03T00:59:13.785Z,14.90
2019-05-03T00:59:18.788Z,12.81
2019-05-03T00:59:23.786Z,10.74
2019-05-03T00:59:28.788Z,9.66
2019-05-03T00:59:33.786Z,10.42
2019-05-03T00:59:38.788Z,11.77
2019-05-03T00:59:43.791Z,13.54
2019-05-03T00:59:48.791Z,14.12
2019-05-03T00:59:53.791Z,13.94
2019-05-03T00:59:58.793Z,18.43
2019-05-03T01:00:03.794Z,18.08
2019-05-03T01:00:08.798Z,13.85
2019-05-03T01:00:13.802Z,13.92
2019-05-03T01:00:18.802Z,14.24
2019-05-03T01:00:23.798Z,14.35
2019-05-03T01:00:28.798Z,12.92
2019-05-03T01:00:33.801Z,12.22
2019-05-03T01:00:38.800Z,13.68
2019-05-03T01:00:43.804Z,14.17
2019-05-03T01:00:48.804Z,15.36
2019-05-03T01:00:53.803Z,17.13
2019-05-03T01:00:58.804Z,15.59
2019-05-03T01:01:03.804Z,12.37
2019-05-03T01:01:08.807Z,13.44
2019-05-03T01:01:13.807Z,14.09
2019-05-03T01:01:19.059Z,13.58
2019-05-03T01:01:23.809Z,11.28
2019-05-03T01:01:28.983Z,9.83
2019-05-03T01:01:34.235Z,9.19
2019-05-03T01:01:38.814Z,9.87
2019-05-03T01:01:43.814Z,12.91
2019-05-03T01:01:48.816Z,13.91
2019-05-03T01:01:53.816Z,12.12
2019-05-03T01:01:58.819Z,11.23
2019-05-03T01:02:03.816Z,10.94
2019-05-03T01:02:08.818Z,10.85
2019-05-03T01:02:13.818Z,10.82
2019-05-03T01:02:18.821Z,11.52
2019-05-03T01:02:23.823Z,13.46
2019-05-03T01:02:28.823Z,13.37
2019-05-03T01:02:33.822Z,12.82
2019-05-03T01:02:38.823Z,11.76
2019-05-03T01:02:43.824Z,11.11
2019-05-03T01:02:48.825Z,13.32
2019-05-03T01:02:53.826Z,15.17
2019-05-03T01:02:58.829Z,13.36
2019-05-03T01:03:03.829Z,11.64
2019-05-03T01:03:08.832Z,13.20
2019-05-03T01:03:13.830Z,13.55
2019-05-03T01:03:18.832Z,14.12
2019-05-03T01:03:23.834Z,14.31
2019-05-03T01:03:28.835Z,11.95
2019-05-03T01:03:33.835Z,14.32
2019-05-03T01:03:38.835Z,16.07
2019-05-03T01:03:43.836Z,17.07
2019-05-03T01:03:48.839Z,17.33
2019-05-03T01:03:53.840Z,17.78
2019-05-03T01:03:58.839Z,18.65
2019-05-03T01:04:03.842Z,18.21
2019-05-03T01:04:08.842Z,17.70
2019-05-03T01:04:13.846Z,17.90
2019-05-03T01:04:18.843Z,17.97
2019-05-03T01:04:23.843Z,16.23
2019-05-03T01:04:28.846Z,15.00
2019-05-03T01:04:33.846Z,14.60
2019-05-03T01:04:38.847Z,16.88
2019-05-03T01:04:43.852Z,17.63
2019-05-03T01:04:48.848Z,16.84
2019-05-03T01:04:53.941Z,15.20
2019-05-03T01:04:58.851Z,14.96
2019-05-03T01:05:03.854Z,12.83
2019-05-03T01:05:08.853Z,11.92
2019-05-03T01:05:13.857Z,11.17
2019-05-03T01:05:18.855Z,12.22
2019-05-03T01:05:23.857Z,13.68
2019-05-03T01:05:28.856Z,14.17